RJCKRJCW

Guest
Details From RJCK - KUSHIRO
To RJCW - WAKKANAI
Flight Number -
Tags generated
Created
Modified
Stats Distance 175 nm / 325 km
Max Altitude 20,500 ft / 6,248 m
Waypoints 3
Social Downloads 0
Likes 0
Share VATSIM

Download

Looking for another format? Having issues loading an existing format? Contact us
Advertisement - Login to hide

Notes

Basic altitude profile: - Ascent Rate: 2500ft/min - Ascent Speed: 250kts - Cruise Altitude: 35000ft - Cruise Speed: 420kts - Descent Rate: 1500ft/min - Descent Speed: 250kts Options: - Use NATs: yes - Use PACOTS: yes - Use low airways: yes - Use high airways: yes

Route

RJCK SAROM RJCW

ID Type Via Altitude Latitude Longitude Leg Dist Tot Dist Heading (true) Name
O RJCK APT - 0 ft / 0 m 43.04097˚ 144.19299˚ - 0 nm - KUSHIRO
SAROM FIX - 20,500 ft / 6,248 m 44.08623˚ 143.07412˚ 79 nm 79 nm 323° / 322° -
O RJCW APT - 0 ft / 0 m 45.40411˚ 141.80093˚ 95 nm 175 nm 326° / 325° WAKKANAI

Altitude Profile

Advertisement - Login to hide

Weather


0- 5 10 15 20 25 30 35+ Temperature / ° C

Clouds and Precipitation
Forecast for 2017-12-18 06:00 UTC. Updated a minute ago

Ground ~20,000 ft ~40,000 ft Winds

RJCK

Details ICAO RJCK (KUH)
Name KUSHIRO
Region Japan
Timezone Asia/Tokyo (UTC+9.0)
Stats Elevation 327 ft / 100 m (AMSL)
Location 43.040970° 144.192986°
Runways 1
Magnetic Variation 8.950° W

METAR

RJCK 180100Z 23008KT 190V270 9999 FEW030 M03/M13 Q1016

Decode

TAF

TAF RJCK 172311Z 1800/1906 35005KT 9999 FEW030 BECMG 1800/1802 22008KT BECMG 1821/1900 29005KT

Decode

Departure Runways

ID Width Length Bearing (true) Bearing (mag) Surface Threshold Offset Overrun Length
17 150 ft / 46 m 8,209 ft / 2,502 m 159.02° 167.97° Asphalt 0 ft / 0 m 200 ft / 61 m
35 150 ft / 46 m 8,209 ft / 2,502 m 339.03° 347.98° Asphalt 0 ft / 0 m 200 ft / 61 m

RJCW

Details ICAO RJCW (WKJ)
Name WAKKANAI
Region Japan
Timezone Asia/Tokyo (UTC+9.0)
Stats Elevation 30 ft / 9 m (AMSL)
Location 45.404111° 141.800926°
Runways 1
Magnetic Variation 10.148° W

METAR

RJCW 180100Z 25014KT 6000 R08/1200VP2000U -SHSN FEW006 SCT010 BKN025 M06/M09 Q1013

Decode

TAF

Not found

Destination Runways

ID Width Length Bearing (true) Bearing (mag) Surface Threshold Offset Overrun Length
08 150 ft / 46 m 6,548 ft / 1,996 m 68.83° 78.98° Asphalt 0 ft / 0 m 200 ft / 61 m
26 150 ft / 46 m 6,548 ft / 1,996 m 248.85° 259.00° Asphalt 0 ft / 0 m 200 ft / 61 m

Approach Navaids

Runway Type Ident Frequency Range Bearing (true) Bearing (mag) Slope Elevation
08 Localiser IWK 111.10 MHz 18 nm / 33 km 68.85° 79.00° - 30 ft / 9 m (AMSL)
08 Glidescope IWK 111.10 MHz 10 nm / 19 km 68.84° 78.99° 3.00° 54 ft / 16 m (AMSL)